Terminal Aerodrome Forecast
Issued by NWS

Home | Current Version | Previous Version | Text Only | Print | Product List | Glossary On
Versions: 1 2 3 4 5 6 7 8 9 10 11 12 13 14 15 16 17 18 19 20 21 22 23 24 25 26 27 28 29 30 31 32 33 34 35
000
FTUS45 KSLC 032332
TAFBCE
TAF
KBCE 032332Z 0400/0424 25012KT P6SM SCT090
     FM040100 25007KT P6SM SKC
     FM040800 15006KT P6SM SKC
     FM041600 25009KT P6SM SKC=

USA.gov is the U.S. government's official web portal to all federal, state and local government web resources and services.